Time;durP1;ratioP1;P1;durP2;ratioP2;P2;SDS_P1;SDS_P2;PMS_P1;PMS_P2;Temp;Humidity;BMP_temperature;BMP_pressure;BME280_temperature;BME280_humidity;BME280_pressure;Samples;Min_cycle;Max_cycle;Signal;HPM_P1;HPM_P2
2024/01/19 00:00:23;;;;;;;40.20;28.80;;;;;;;-1.35;100.00;99542.34;108398;1290;22770;-81
2024/01/19 00:03:47;;;;;;;36.10;27.20;;;;;;;-1.40;100.00;99551.56;108333;1290;23770;-80
2024/01/19 00:06:51;;;;;;;33.40;24.60;;;;;;;-1.46;100.00;99552.61;107756;1294;22202;-81
2024/01/19 00:09:42;;;;;;;32.40;25.60;;;;;;;-1.48;100.00;99554.48;107769;1295;23756;-80
2024/01/19 00:12:35;;;;;;;30.30;24.60;;;;;;;-1.46;100.00;99558.58;107832;1295;22008;-80
2024/01/19 00:15:42;;;;;;;29.20;22.90;;;;;;;-1.47;100.00;99560.63;107749;1295;22008;-81
2024/01/19 00:18:32;;;;;;;25.80;20.10;;;;;;;-1.46;100.00;99565.74;107829;1295;22018;-80
2024/01/19 00:21:44;;;;;;;34.70;22.30;;;;;;;-1.48;100.00;99569.15;107901;1295;22029;-81
2024/01/19 00:24:27;;;;;;;29.00;22.30;;;;;;;-1.45;100.00;99570.86;108105;1292;22042;-81
2024/01/19 00:27:15;;;;;;;33.80;23.20;;;;;;;-1.52;100.00;99559.44;107651;1295;22477;-81
2024/01/19 00:30:02;;;;;;;30.30;24.20;;;;;;;-1.43;100.00;99576.66;108218;1291;22006;-80
2024/01/19 00:32:42;;;;;;;28.00;23.00;;;;;;;-1.37;100.00;99579.22;108169;1290;22027;-81
2024/01/19 00:35:33;;;;;;;24.70;20.50;;;;;;;-1.32;100.00;99580.06;108127;1291;21985;-80
2024/01/19 00:38:24;;;;;;;24.70;20.60;;;;;;;-1.28;100.00;99583.80;108438;1288;22034;-81
2024/01/19 00:41:23;;;;;;;25.20;20.00;;;;;;;-1.26;100.00;99590.46;108451;1288;23539;-83
2024/01/19 00:44:23;;;;;;;28.40;22.60;;;;;;;-1.23;100.00;99590.80;108362;1282;23022;-83
2024/01/19 00:47:07;;;;;;;23.40;19.40;;;;;;;-1.23;100.00;99591.65;108774;1281;21999;-80
2024/01/19 00:50:04;;;;;;;28.60;20.60;;;;;;;-1.27;100.00;99588.92;108399;1286;22075;-82
2024/01/19 00:52:54;;;;;;;30.40;21.30;;;;;;;-1.31;100.00;99592.70;108298;1291;22118;-81
2024/01/19 00:55:43;;;;;;;27.30;20.10;;;;;;;-1.40;100.00;99589.30;108277;1291;21997;-79
2024/01/19 00:58:29;;;;;;;27.00;19.30;;;;;;;-1.45;100.00;99588.95;107977;1291;22746;-80
2024/01/19 01:01:29;;;;;;;24.10;19.40;;;;;;;-1.46;100.00;99603.62;108231;1291;22009;-80
2024/01/19 01:04:14;;;;;;;26.60;19.70;;;;;;;-1.53;100.00;99611.14;108545;1291;22076;-79
2024/01/19 01:07:10;;;;;;;21.80;18.20;;;;;;;-1.56;100.00;99615.41;108170;1287;22806;-80
2024/01/19 01:09:57;;;;;;;30.50;19.30;;;;;;;-1.56;100.00;99622.23;108399;1287;22027;-80
2024/01/19 01:12:46;;;;;;;26.70;19.60;;;;;;;-1.57;100.00;99623.60;108502;1281;23770;-78
2024/01/19 01:15:29;;;;;;;23.80;18.70;;;;;;;-1.62;100.00;99628.38;108595;1281;22200;-79
2024/01/19 01:18:17;;;;;;;27.20;19.10;;;;;;;-1.65;100.00;99636.23;108554;1281;22001;-80
2024/01/19 01:20:54;;;;;;;25.60;19.50;;;;;;;-1.66;100.00;99643.40;108537;1281;22154;-80
2024/01/19 01:23:43;;;;;;;23.30;18.00;;;;;;;-1.67;100.00;99648.17;108593;1281;23736;-78
2024/01/19 01:26:27;;;;;;;22.80;16.50;;;;;;;-1.69;100.00;99652.95;108601;1281;23812;-78
2024/01/19 01:29:09;;;;;;;22.20;17.60;;;;;;;-1.68;100.00;99661.98;108573;1281;22063;-78
2024/01/19 01:31:41;;;;;;;20.40;16.80;;;;;;;-1.67;100.00;99667.44;108615;1281;23788;-77
2024/01/19 01:34:30;;;;;;;22.50;18.00;;;;;;;-1.64;100.00;99676.49;108479;1281;23109;-79
2024/01/19 01:37:01;;;;;;;22.40;18.70;;;;;;;-1.61;100.00;99678.72;108566;1281;22001;-78
2024/01/19 01:39:36;;;;;;;26.20;19.10;;;;;;;-1.55;100.00;99678.55;108433;1276;22053;-78
2024/01/19 01:42:21;;;;;;;23.40;19.00;;;;;;;-1.50;100.00;99682.31;108627;1281;21995;-78
2024/01/19 01:45:03;;;;;;;26.10;19.30;;;;;;;-1.45;100.00;99685.21;108804;1281;22044;-79
2024/01/19 01:47:37;;;;;;;28.60;22.30;;;;;;;-1.41;100.00;99685.89;108481;1281;22758;-79
2024/01/19 01:50:07;;;;;;;33.70;26.10;;;;;;;-1.35;100.00;99682.15;108473;1276;23072;-79
2024/01/19 01:52:58;;;;;;;37.60;30.40;;;;;;;-1.30;100.00;99686.92;108483;1286;23085;-79
2024/01/19 01:55:36;;;;;;;39.20;31.50;;;;;;;-1.27;100.00;99690.50;108210;1286;22766;-79
2024/01/19 01:58:16;;;;;;;41.70;33.20;;;;;;;-1.27;100.00;99698.35;108298;1286;21999;-80
2024/01/19 02:01:00;;;;;;;46.70;38.70;;;;;;;-1.28;100.00;99705.52;108425;1285;23090;-80
2024/01/19 02:03:40;;;;;;;53.40;42.40;;;;;;;-1.29;100.00;99709.29;108672;1286;21885;-80
2024/01/19 02:06:09;;;;;;;47.80;40.80;;;;;;;-1.27;100.00;99710.82;108421;1286;23742;-80
2024/01/19 02:08:51;;;;;;;52.40;40.60;;;;;;;-1.23;100.00;99705.02;108335;1281;21992;-80
2024/01/19 02:11:40;;;;;;;53.90;41.60;;;;;;;-1.22;100.00;99704.16;108569;1281;23755;-77
2024/01/19 02:14:37;;;;;;;48.10;36.00;;;;;;;-1.25;100.00;99704.85;108653;1277;23055;-78
2024/01/19 02:17:10;;;;;;;44.30;36.60;;;;;;;-1.30;100.00;99701.26;108539;1281;22973;-79
2024/01/19 02:19:54;;;;;;;49.40;39.60;;;;;;;-1.23;100.00;99713.55;108509;1273;23656;-78
2024/01/19 02:22:31;;;;;;;43.10;36.30;;;;;;;-1.18;100.00;99712.36;108743;1280;22764;-78
2024/01/19 02:25:07;;;;;;;48.90;38.10;;;;;;;-1.15;100.00;99712.02;108612;1280;22013;-79
2024/01/19 02:27:49;;;;;;;50.00;38.90;;;;;;;-1.13;100.00;99717.82;108575;1280;23087;-78
2024/01/19 02:30:26;;;;;;;46.70;39.80;;;;;;;-1.12;100.00;99717.64;108567;1281;21999;-78
2024/01/19 02:33:09;;;;;;;42.60;35.80;;;;;;;-1.14;100.00;99722.09;108432;1272;23132;-78
2024/01/19 02:35:46;;;;;;;45.60;37.60;;;;;;;-1.17;100.00;99731.65;108267;1285;22824;-77
2024/01/19 02:38:33;;;;;;;45.90;36.20;;;;;;;-1.22;100.00;99744.29;108356;1285;22918;-77
2024/01/19 02:41:42;;;;;;;44.10;36.60;;;;;;;-1.28;100.00;99749.22;108193;1285;23765;-78
2024/01/19 02:44:20;;;;;;;40.50;34.80;;;;;;;-1.36;100.00;99753.83;108305;1285;22997;-81
2024/01/19 02:46:58;;;;;;;37.10;30.70;;;;;;;-1.39;100.00;99757.42;108241;1285;22887;-79
2024/01/19 02:49:37;;;;;;;29.40;24.30;;;;;;;-1.43;100.00;99765.94;108011;1289;22006;-78
2024/01/19 02:52:14;;;;;;;26.30;22.40;;;;;;;-1.48;100.00;99770.38;107756;1291;22676;-79
2024/01/19 02:54:57;;;;;;;35.40;26.70;;;;;;;-1.51;100.00;99773.27;108063;1292;22002;-77
2024/01/19 02:57:38;;;;;;;35.30;23.30;;;;;;;-1.50;100.00;99780.79;107771;1291;23942;-80
2024/01/19 03:00:22;;;;;;;37.30;28.70;;;;;;;-1.48;100.00;99788.45;107856;1291;22201;-79
2024/01/19 03:02:55;;;;;;;36.40;27.60;;;;;;;-1.46;100.00;99785.05;107814;1288;22767;-79
2024/01/19 03:05:37;;;;;;;33.50;27.80;;;;;;;-1.45;100.00;99784.20;107888;1294;22022;-80
2024/01/19 03:08:17;;;;;;;34.30;30.70;;;;;;;-1.44;100.00;99783.69;108040;1291;22018;-81
2024/01/19 03:10:49;;;;;;;34.90;28.40;;;;;;;-1.42;100.00;99787.45;108082;1288;23691;-79
2024/01/19 03:13:26;;;;;;;35.60;28.70;;;;;;;-1.39;100.00;99790.87;107867;1294;23401;-82
2024/01/19 03:16:04;;;;;;;40.80;31.00;;;;;;;-1.36;100.00;99793.61;107776;1294;23872;-80
2024/01/19 03:18:36;;;;;;;41.00;31.40;;;;;;;-1.35;100.00;99796.85;107647;1294;23116;-80
2024/01/19 03:21:15;;;;;;;45.90;32.70;;;;;;;-1.34;100.00;99796.34;107420;1294;22068;-79
2024/01/19 03:23:54;;;;;;;40.90;34.50;;;;;;;-1.36;100.00;99798.56;107619;1291;22047;-79
2024/01/19 03:26:27;;;;;;;40.80;32.40;;;;;;;-1.38;100.00;99804.70;103393;1294;5425698;-79
2024/01/19 03:29:04;;;;;;;42.30;33.30;;;;;;;-1.39;100.00;99815.11;107728;1295;23078;-78
2024/01/19 03:31:43;;;;;;;41.20;34.60;;;;;;;-1.38;100.00;99819.21;107807;1290;22821;-79
2024/01/19 03:34:25;;;;;;;44.40;34.10;;;;;;;-1.36;100.00;99827.91;108059;1290;22005;-79
2024/01/19 03:37:09;;;;;;;36.70;27.90;;;;;;;-1.35;100.00;99835.43;107597;1294;21998;-78
2024/01/19 03:39:46;;;;;;;38.30;33.40;;;;;;;-1.35;100.00;99840.73;107283;1296;23062;-79
2024/01/19 03:42:49;;;;;;;42.30;33.80;;;;;;;-1.35;100.00;99853.52;107048;1304;23007;-79
2024/01/19 03:45:25;;;;;;;39.40;32.10;;;;;;;-1.38;100.00;99855.40;106378;1304;23780;-78
2024/01/19 03:48:10;;;;;;;35.40;30.30;;;;;;;-1.42;100.00;99861.19;107255;1300;22029;-78
2024/01/19 03:50:47;;;;;;;34.40;29.70;;;;;;;-1.47;100.00;99862.88;107094;1300;22013;-78
2024/01/19 03:53:32;;;;;;;30.30;25.50;;;;;;;-1.49;100.00;99874.98;107062;1300;22043;-79
2024/01/19 03:56:01;;;;;;;37.60;32.90;;;;;;;-1.53;100.00;99882.31;107445;1296;23855;-78
2024/01/19 03:58:34;;;;;;;41.80;31.90;;;;;;;-1.57;100.00;99887.42;107262;1296;22024;-79
2024/01/19 04:01:15;;;;;;;46.70;38.60;;;;;;;-1.63;100.00;99893.36;107797;1291;22475;-79
2024/01/19 04:07:55;;;;;;;;;;;;;;;;;;;;;
2024/01/19 04:11:05;;;;;;;35.40;28.40;;;;;;;-1.88;100.00;99905.67;108068;1291;22758;-79
2024/01/19 04:13:50;;;;;;;175.60;123.40;;;;;;;-1.92;100.00;99907.19;107973;1291;22006;-80
2024/01/19 04:16:23;;;;;;;39.60;31.30;;;;;;;-1.97;100.00;99910.58;108124;1285;21990;-79
2024/01/19 04:18:55;;;;;;;39.30;30.80;;;;;;;-2.14;100.00;99894.98;108448;1284;23719;-78
2024/01/19 04:21:31;;;;;;;35.40;29.80;;;;;;;-2.08;100.00;99919.73;108483;1284;22056;-79
2024/01/19 04:24:12;;;;;;;35.70;30.80;;;;;;;-2.16;100.00;99922.91;108129;1284;22475;-79
2024/01/19 04:26:43;;;;;;;37.80;29.00;;;;;;;-2.23;100.00;99924.91;108143;1284;22223;-79
2024/01/19 04:29:29;;;;;;;36.40;30.00;;;;;;;-2.32;100.00;99926.04;108648;1281;21829;-78
2024/01/19 04:32:13;;;;;;;37.20;26.30;;;;;;;-2.39;100.00;99930.41;108497;1284;23714;-77
2024/01/19 04:35:08;;;;;;;36.50;27.50;;;;;;;-2.44;100.00;99934.79;108596;1284;24410;-78
2024/01/19 04:37:57;;;;;;;34.50;27.10;;;;;;;-2.49;100.00;99934.58;108510;1284;22007;-77
2024/01/19 04:41:00;;;;;;;38.50;28.80;;;;;;;-2.52;100.00;99934.21;108585;1284;22012;-79
2024/01/19 04:43:36;;;;;;;33.00;25.30;;;;;;;-2.56;100.00;99926.16;108285;1284;23052;-80
2024/01/19 04:46:14;;;;;;;40.20;27.40;;;;;;;-2.52;100.00;99928.94;108454;1284;23178;-78
2024/01/19 04:48:51;;;;;;;35.40;26.90;;;;;;;-2.55;100.00;99925.16;108329;1284;21998;-78
2024/01/19 04:51:35;;;;;;;33.40;26.30;;;;;;;-2.60;100.00;99927.16;108801;1281;22024;-78
2024/01/19 04:54:15;;;;;;;30.70;25.70;;;;;;;-2.65;100.00;99930.36;108573;1281;24369;-77
2024/01/19 04:56:47;;;;;;;32.60;25.80;;;;;;;-2.70;100.00;99926.56;108602;1281;23593;-78
2024/01/19 04:59:28;;;;;;;34.60;26.50;;;;;;;-2.80;100.00;99915.73;108537;1281;23738;-78
2024/01/19 05:02:05;;;;;;;33.60;27.10;;;;;;;-2.79;100.00;99935.67;108404;1286;22567;-79
2024/01/19 05:04:40;;;;;;;30.60;26.30;;;;;;;-2.83;100.00;99940.91;108204;1286;22012;-79
2024/01/19 05:07:14;;;;;;;33.20;26.00;;;;;;;-2.86;100.00;99943.27;108168;1286;21999;-80
2024/01/19 05:09:50;;;;;;;36.10;28.20;;;;;;;-2.88;100.00;99945.80;108037;1290;23039;-79
2024/01/19 05:12:26;;;;;;;34.90;28.90;;;;;;;-2.90;100.00;99948.67;108329;1290;22009;-80
2024/01/19 05:15:09;;;;;;;39.70;29.20;;;;;;;-2.90;100.00;99950.38;108076;1290;23079;-79
2024/01/19 05:17:40;;;;;;;43.70;31.00;;;;;;;-2.91;100.00;99956.16;108090;1291;23870;-81
2024/01/19 05:20:21;;;;;;;47.70;32.40;;;;;;;-2.92;100.00;99958.19;108104;1287;22020;-79
2024/01/19 05:23:07;;;;;;;43.60;30.90;;;;;;;-2.94;100.00;99961.91;108437;1287;23077;-80
2024/01/19 05:25:45;;;;;;;43.30;33.90;;;;;;;-2.96;100.00;99965.80;108484;1287;22102;-79
2024/01/19 05:28:26;;;;;;;35.60;30.10;;;;;;;-2.97;100.00;99968.36;108745;1281;21992;-78
2024/01/19 05:31:06;;;;;;;40.80;31.90;;;;;;;-2.99;100.00;99972.23;108716;1281;22072;-79
2024/01/19 05:33:45;;;;;;;39.50;33.10;;;;;;;-3.00;100.00;99969.86;108508;1281;21992;-79
2024/01/19 05:36:23;;;;;;;40.30;29.10;;;;;;;-3.00;100.00;99969.52;108321;1286;23076;-79
2024/01/19 05:39:04;;;;;;;34.50;27.20;;;;;;;-3.01;100.00;99969.67;108242;1286;22026;-78
2024/01/19 05:41:49;;;;;;;35.70;29.00;;;;;;;-3.02;100.00;99968.81;108063;1290;22984;-78
2024/01/19 05:44:27;;;;;;;36.20;29.60;;;;;;;-3.01;100.00;99968.81;108120;1290;22015;-79
2024/01/19 05:47:02;;;;;;;32.10;27.60;;;;;;;-2.99;100.00;99967.48;108091;1289;23061;-79
2024/01/19 05:49:45;;;;;;;36.70;28.90;;;;;;;-2.96;100.00;99968.19;108158;1290;23704;-78
2024/01/19 05:52:16;;;;;;;35.10;28.20;;;;;;;-2.97;100.00;99971.41;107944;1290;24534;-79
2024/01/19 05:54:45;;;;;;;38.20;29.90;;;;;;;-2.97;100.00;99969.88;108170;1286;23731;-79
2024/01/19 05:57:30;;;;;;;39.60;29.80;;;;;;;-2.96;100.00;99973.47;108185;1286;23695;-79
2024/01/19 06:00:16;;;;;;;41.40;29.30;;;;;;;-2.98;100.00;99976.52;108534;1281;22046;-79
2024/01/19 06:02:52;;;;;;;36.30;30.60;;;;;;;-3.00;100.00;99976.15;108519;1281;22761;-79
2024/01/19 06:05:39;;;;;;;40.20;33.30;;;;;;;-3.02;100.00;99983.11;108601;1281;21993;-79
2024/01/19 06:08:15;;;;;;;42.50;33.90;;;;;;;-3.03;100.00;99990.09;108637;1281;22569;-79
2024/01/19 06:10:57;;;;;;;41.30;34.30;;;;;;;-3.05;100.00;99997.20;108437;1285;21998;-78
2024/01/19 06:13:35;;;;;;;39.90;33.70;;;;;;;-3.05;100.00;100004.88;108235;1285;23683;-79
2024/01/19 06:16:10;;;;;;;41.70;34.80;;;;;;;-3.05;100.00;100006.22;108476;1277;23303;-77
2024/01/19 06:18:46;;;;;;;45.70;35.30;;;;;;;-3.05;100.00;100014.56;108403;1285;22008;-78
2024/01/19 06:21:20;;;;;;;43.50;33.60;;;;;;;-3.06;100.00;100021.19;107989;1290;22012;-78
2024/01/19 06:24:00;;;;;;;72.10;52.90;;;;;;;-3.07;100.00;100019.46;107920;1290;23730;-78
2024/01/19 06:26:32;;;;;;;68.00;52.40;;;;;;;-3.11;100.00;100023.34;108087;1290;22009;-78
2024/01/19 06:29:02;;;;;;;90.80;72.60;;;;;;;-3.17;100.00;100033.99;108042;1287;22009;-77
2024/01/19 06:31:52;;;;;;;67.70;52.60;;;;;;;-3.23;100.00;100039.70;108340;1287;22001;-77
2024/01/19 06:35:00;;;;;;;52.90;43.80;;;;;;;-3.33;100.00;100044.86;108110;1287;22001;-77
2024/01/19 06:37:39;;;;;;;45.80;36.60;;;;;;;-3.41;100.00;100049.16;108190;1287;24066;-78
2024/01/19 06:40:13;;;;;;;47.10;39.60;;;;;;;-3.45;100.00;100047.06;108394;1281;23622;-78
2024/01/19 06:42:45;;;;;;;;;;;;;;;-3.44;100.00;100049.79;108563;1281;21988;-79
2024/01/19 06:45:19;;;;;;;48.50;38.50;;;;;;;-3.51;100.00;100056.33;108566;1281;21987;-79
2024/01/19 06:47:54;;;;;;;53.60;38.80;;;;;;;-3.53;100.00;100058.35;108471;1281;21978;-76
2024/01/19 06:50:24;;;;;;;38.20;33.50;;;;;;;-3.49;100.00;100058.73;108561;1281;23073;-77
2024/01/19 06:53:04;;;;;;;45.30;33.40;;;;;;;-3.45;100.00;100059.66;108552;1281;21998;-76
2024/01/19 06:55:37;;;;;;;43.50;35.90;;;;;;;-3.39;100.00;100061.79;108518;1281;23618;-78
2024/01/19 06:58:08;;;;;;;45.20;32.90;;;;;;;-3.36;100.00;100066.27;108532;1281;23724;-77
2024/01/19 07:00:39;;;;;;;49.40;43.60;;;;;;;-3.38;100.00;100066.06;108541;1281;22039;-78
2024/01/19 07:03:20;;;;;;;117.20;77.30;;;;;;;-3.40;100.00;100065.52;108363;1285;22001;-76
2024/01/19 07:05:50;;;;;;;209.20;128.80;;;;;;;-3.45;100.00;100060.67;108293;1285;23154;-77
2024/01/19 07:08:19;;;;;;;174.00;114.40;;;;;;;-3.45;100.00;100064.27;108275;1285;21984;-78
2024/01/19 07:10:51;;;;;;;124.50;92.50;;;;;;;-3.45;100.00;100063.40;108443;1285;21990;-78
2024/01/19 07:13:28;;;;;;;86.80;68.70;;;;;;;-3.42;100.00;100067.17;108270;1285;21996;-77
2024/01/19 07:15:59;;;;;;;70.10;62.60;;;;;;;-3.40;100.00;100068.06;108405;1285;23741;-78
2024/01/19 07:18:27;;;;;;;55.00;46.80;;;;;;;-3.41;100.00;100071.80;108234;1285;23714;-77
2024/01/19 07:21:02;;;;;;;;;;;;;;;-3.42;100.00;100075.36;108564;1281;22613;-78
2024/01/19 07:23:45;;;;;;;52.80;40.60;;;;;;;-3.48;100.00;100073.73;108631;1281;21993;-78
2024/01/19 07:26:22;;;;;;;61.60;47.30;;;;;;;-3.45;100.00;100070.87;108773;1280;24402;-77
2024/01/19 07:28:54;;;;;;;50.70;40.80;;;;;;;-3.42;100.00;100069.91;108276;1285;22028;-78
2024/01/19 07:31:26;;;;;;;56.10;42.40;;;;;;;-3.39;100.00;100072.68;108486;1285;23279;-77
2024/01/19 07:33:55;;;;;;;53.70;39.80;;;;;;;-3.35;100.00;100072.05;108217;1285;23723;-78
2024/01/19 07:36:28;;;;;;;50.30;38.80;;;;;;;-3.32;100.00;100075.83;108412;1285;22026;-80
2024/01/19 07:39:01;;;;;;;53.50;39.50;;;;;;;-3.27;100.00;100079.98;108290;1285;23752;-77
2024/01/19 07:41:30;;;;;;;80.30;52.70;;;;;;;-3.22;100.00;100079.38;108184;1283;22564;-77
2024/01/19 07:43:59;;;;;;;54.20;41.70;;;;;;;-3.18;100.00;100077.72;108083;1290;22049;-77
2024/01/19 07:46:28;;;;;;;68.10;50.70;;;;;;;-3.13;100.00;100079.49;108225;1285;22463;-77
2024/01/19 07:48:56;;;;;;;52.40;41.70;;;;;;;-3.08;100.00;100080.75;108491;1284;22000;-77
2024/01/19 07:51:26;;;;;;;59.40;45.10;;;;;;;-3.03;100.00;100080.65;108468;1285;23160;-78
2024/01/19 07:53:59;;;;;;;60.90;48.40;;;;;;;-3.03;100.00;100083.70;108473;1285;23876;-78
2024/01/19 07:56:34;;;;;;;50.60;40.80;;;;;;;-3.03;100.00;100085.59;108320;1285;22109;-78
2024/01/19 07:59:07;;;;;;;57.60;44.40;;;;;;;-3.04;100.00;100087.61;108404;1276;21995;-78
2024/01/19 08:01:38;;;;;;;56.50;43.20;;;;;;;-3.02;100.00;100091.90;108163;1284;21992;-78
2024/01/19 08:04:12;;;;;;;58.00;45.60;;;;;;;-2.99;100.00;100095.86;108138;1290;22796;-77
2024/01/19 08:06:46;;;;;;;58.30;45.00;;;;;;;-2.98;100.00;100094.34;108183;1290;22000;-77
2024/01/19 08:09:17;;;;;;;55.40;41.60;;;;;;;-2.96;100.00;100092.65;108151;1290;23107;-76
2024/01/19 08:11:48;;;;;;;52.50;39.40;;;;;;;-2.95;100.00;100092.84;107905;1290;21985;-78
2024/01/19 08:14:27;;;;;;;61.50;45.50;;;;;;;-2.90;100.00;100094.95;107850;1293;23734;-78
2024/01/19 08:17:04;;;;;;;65.20;50.90;;;;;;;-2.83;100.00;100097.42;107903;1292;22992;-78
2024/01/19 08:19:41;;;;;;;69.30;51.60;;;;;;;-2.77;100.00;100098.17;107815;1290;22011;-78
2024/01/19 08:22:12;;;;;;;62.10;49.80;;;;;;;-2.79;100.00;100084.02;108148;1284;23908;-77
2024/01/19 08:24:48;;;;;;;58.90;43.50;;;;;;;-2.74;100.00;100089.52;108165;1289;25027;-77
2024/01/19 08:27:19;;;;;;;54.10;38.20;;;;;;;-2.58;100.00;100100.96;108111;1289;22007;-78
2024/01/19 08:29:47;;;;;;;42.10;34.70;;;;;;;-2.51;100.00;100098.14;107860;1289;22981;-77
2024/01/19 08:32:18;;;;;;;56.70;38.70;;;;;;;-2.49;100.00;100100.71;108182;1285;22051;-77
2024/01/19 08:34:51;;;;;;;51.20;36.90;;;;;;;-2.50;100.00;100099.52;108193;1285;22083;-79
2024/01/19 08:37:31;;;;;;;54.90;40.10;;;;;;;-2.54;100.00;100099.65;108458;1285;23745;-77
2024/01/19 08:40:05;;;;;;;56.50;41.30;;;;;;;-2.55;100.00;100107.82;108262;1285;21998;-79
2024/01/19 08:43:03;;;;;;;50.10;38.90;;;;;;;-2.57;100.00;100111.03;108419;1280;24398;-76
2024/01/19 08:45:41;;;;;;;52.50;38.00;;;;;;;-2.64;100.00;100114.18;108600;1280;23048;-75
2024/01/19 08:48:15;;;;;;;54.60;38.60;;;;;;;-2.69;100.00;100113.77;108658;1280;22033;-77
2024/01/19 08:50:56;;;;;;;50.00;35.70;;;;;;;-2.69;100.00;100111.38;108481;1284;21995;-80
2024/01/19 08:53:30;;;;;;;57.10;39.90;;;;;;;-2.69;100.00;100116.66;108537;1283;23774;-78
2024/01/19 08:56:23;;;;;;;49.10;36.70;;;;;;;-2.66;100.00;100121.47;108519;1284;22530;-79
2024/01/19 08:59:23;;;;;;;50.30;37.80;;;;;;;-2.64;100.00;100123.04;108390;1284;22592;-76
2024/01/19 09:02:27;;;;;;;59.10;41.10;;;;;;;-2.62;100.00;100120.34;108514;1280;21994;-78
2024/01/19 09:09:44;;;;;;;63.70;44.10;;;;;;;-2.63;100.00;100126.97;108689;1283;21915;-78
2024/01/19 09:13:16;;;;;;;;;;;;;;;;;;;;;
2024/01/19 09:17:07;;;;;;;;;;;;;;;;;;;;;
2024/01/19 09:20:18;;;;;;;56.70;39.90;;;;;;;-2.62;100.00;100142.31;108527;1284;22994;-81
2024/01/19 09:23:02;;;;;;;58.10;43.20;;;;;;;-2.56;100.00;100146.66;108623;1283;22010;-80
2024/01/19 09:25:38;;;;;;;62.00;41.40;;;;;;;-2.50;100.00;100148.60;108527;1283;22336;-79
2024/01/19 09:28:20;;;;;;;58.10;40.20;;;;;;;-2.47;100.00;100154.42;108202;1286;22014;-78
2024/01/19 09:30:52;;;;;;;58.80;39.90;;;;;;;-2.48;100.00;100157.47;108172;1290;22631;-80
2024/01/19 09:33:24;;;;;;;66.30;43.60;;;;;;;-2.46;100.00;100165.86;108096;1290;24093;-79
2024/01/19 09:35:53;;;;;;;;;;;;;;;-2.40;100.00;100170.52;107842;1293;23782;-79
2024/01/19 09:38:27;;;;;;;55.50;38.40;;;;;;;-2.44;100.00;100173.72;107769;1292;23081;-78
2024/01/19 09:41:44;;;;;;;62.50;43.90;;;;;;;-2.39;100.00;100168.84;107738;1293;23762;-78
2024/01/19 09:44:29;;;;;;;53.40;37.20;;;;;;;-2.21;100.00;100174.16;107723;1293;21991;-78
2024/01/19 09:47:21;;;;;;;75.50;44.90;;;;;;;-2.12;100.00;100173.73;107891;1292;22008;-78
2024/01/19 09:50:08;;;;;;;53.20;42.10;;;;;;;-2.11;100.00;100173.08;108006;1290;22006;-78
2024/01/19 09:53:02;;;;;;;56.50;39.60;;;;;;;-2.09;100.00;100168.82;108231;1285;22110;-79
2024/01/19 09:55:36;;;;;;;53.20;41.90;;;;;;;-2.04;100.00;100168.70;108665;1280;25011;-79
2024/01/19 09:58:06;;;;;;;59.60;40.50;;;;;;;-2.01;100.00;100175.73;108583;1280;21990;-76
2024/01/19 10:00:35;;;;;;;56.10;39.30;;;;;;;-1.99;100.00;100174.56;108575;1280;22081;-74
2024/01/19 10:03:15;;;;;;;58.00;43.00;;;;;;;-1.96;100.00;100178.84;108534;1280;21974;-76
2024/01/19 10:05:48;;;;;;;54.30;38.40;;;;;;;-1.93;100.00;100180.94;108515;1279;23637;-75
2024/01/19 10:08:23;;;;;;;57.50;42.10;;;;;;;-1.86;100.00;100178.44;108523;1280;22005;-74
2024/01/19 10:10:59;;;;;;;64.60;43.80;;;;;;;-1.75;100.00;100182.13;108118;1286;22086;-75
2024/01/19 10:13:41;;;;;;;63.30;46.90;;;;;;;-1.57;100.00;100189.46;108262;1286;22987;-74
2024/01/19 10:16:15;;;;;;;56.80;47.00;;;;;;;-1.37;100.00;100186.39;108429;1286;22002;-74
2024/01/19 10:18:50;;;;;;;56.60;41.40;;;;;;;-1.22;100.00;100186.34;108279;1286;23046;-75
2024/01/19 10:21:29;;;;;;;52.50;40.80;;;;;;;-1.06;100.00;100187.65;108222;1286;23750;-74
2024/01/19 10:24:14;;;;;;;51.30;38.20;;;;;;;-0.88;100.00;100185.20;108416;1286;25112;-74
2024/01/19 10:26:47;;;;;;;;;;;;;;;-0.71;100.00;100187.02;108188;1289;21978;-74
2024/01/19 10:29:21;;;;;;;52.20;40.70;;;;;;;-0.57;100.00;100183.16;108368;1284;22989;-74
2024/01/19 10:31:53;;;;;;;51.30;39.40;;;;;;;-0.37;100.00;100190.42;108439;1284;23747;-74
2024/01/19 10:34:24;;;;;;;58.20;44.30;;;;;;;-0.23;100.00;100192.87;108137;1288;22111;-74
2024/01/19 10:37:01;;;;;;;50.50;39.30;;;;;;;-0.12;100.00;100192.23;107688;1292;22009;-76
2024/01/19 10:39:39;;;;;;;53.70;41.70;;;;;;;-0.00;100.00;100192.27;107621;1296;22141;-79
2024/01/19 10:42:08;;;;;;;58.10;42.60;;;;;;;0.11;100.00;100194.01;107137;1301;22777;-81
2024/01/19 10:44:37;;;;;;;53.30;42.90;;;;;;;0.22;100.00;100193.16;106979;1295;23114;-78
2024/01/19 10:47:08;;;;;;;52.00;41.10;;;;;;;0.28;100.00;100190.77;107112;1299;22033;-79
2024/01/19 10:49:39;;;;;;;58.50;43.10;;;;;;;0.38;100.00;100194.23;106946;1303;22021;-80
2024/01/19 10:52:10;;;;;;;55.50;38.30;;;;;;;0.50;100.00;100194.23;106498;1306;22779;-78
2024/01/19 10:54:41;;;;;;;53.50;38.00;;;;;;;0.60;100.00;100192.36;106542;1302;22999;-80
2024/01/19 10:57:09;;;;;;;;;;;;;;;0.70;100.00;100195.10;106943;1301;22003;-79
2024/01/19 10:59:38;;;;;;;52.30;39.00;;;;;;;0.80;100.00;100200.41;107129;1294;23136;-80
2024/01/19 11:02:10;;;;;;;56.60;43.00;;;;;;;0.86;100.00;100196.81;107491;1297;22012;-80
2024/01/19 11:04:39;;;;;;;51.80;39.30;;;;;;;0.92;100.00;100194.58;107487;1297;23645;-78
2024/01/19 11:07:09;;;;;;;51.70;38.80;;;;;;;1.00;100.00;100195.94;107586;1293;23269;-79
2024/01/19 11:09:40;;;;;;;52.70;38.70;;;;;;;1.03;100.00;100192.52;107870;1288;22115;-79
2024/01/19 11:12:16;;;;;;;54.60;39.30;;;;;;;1.05;100.00;100192.52;108214;1289;22513;-80
2024/01/19 11:14:46;;;;;;;64.10;43.60;;;;;;;1.07;100.00;100188.73;108197;1289;22093;-80
2024/01/19 11:17:18;;;;;;;54.40;39.60;;;;;;;1.13;100.00;100188.22;108257;1286;22026;-80
2024/01/19 11:19:49;;;;;;;62.40;43.90;;;;;;;1.16;100.00;100186.83;108420;1280;22970;-79
2024/01/19 11:22:18;;;;;;;60.50;40.60;;;;;;;1.22;100.00;100184.42;108249;1286;22015;-81
2024/01/19 11:24:55;;;;;;;57.20;44.10;;;;;;;1.27;100.00;100180.46;107906;1292;23081;-79
2024/01/19 11:27:35;;;;;;;60.30;42.00;;;;;;;1.27;100.00;100176.00;107878;1292;23738;-78
2024/01/19 11:30:26;;;;;;;61.50;40.70;;;;;;;1.25;100.00;100181.66;107520;1297;22208;-80
2024/01/19 11:33:21;;;;;;;51.80;38.10;;;;;;;1.21;100.00;100183.91;107046;1302;24269;-78
2024/01/19 11:35:58;;;;;;;49.10;37.40;;;;;;;1.13;100.00;100185.98;107447;1301;24604;-78
2024/01/19 11:38:48;;;;;;;53.20;36.40;;;;;;;1.10;100.00;100186.33;106938;1303;22109;-78
2024/01/19 11:41:41;;;;;;;45.50;35.40;;;;;;;1.13;100.00;100185.46;106641;1306;22054;-80
2024/01/19 11:44:48;;;;;;;41.40;29.90;;;;;;;1.13;100.00;100183.41;107404;1301;22004;-80
2024/01/19 11:47:37;;;;;;;47.30;32.60;;;;;;;1.15;100.00;100188.55;107303;1297;22088;-79
2024/01/19 11:50:13;;;;;;;45.70;35.90;;;;;;;1.17;100.00;100192.32;107649;1296;22023;-79
2024/01/19 11:52:46;;;;;;;33.90;23.90;;;;;;;1.19;100.00;100188.36;108239;1289;23786;-78
2024/01/19 11:55:27;;;;;;;43.90;34.60;;;;;;;1.22;100.00;100183.21;108286;1289;22105;-78
2024/01/19 11:58:40;;;;;;;40.70;28.90;;;;;;;1.21;100.00;100177.40;108077;1292;22051;-80
2024/01/19 12:01:12;;;;;;;37.20;23.30;;;;;;;1.15;100.00;100180.48;108177;1290;23759;-79
2024/01/19 12:03:45;;;;;;;31.30;23.80;;;;;;;1.11;100.00;100180.66;107758;1292;22016;-78
2024/01/19 12:06:15;;;;;;;36.00;22.20;;;;;;;1.08;100.00;100181.88;107271;1299;22076;-79
2024/01/19 12:09:02;;;;;;;27.40;21.20;;;;;;;1.04;100.00;100183.60;107435;1299;22045;-78
2024/01/19 12:11:35;;;;;;;25.60;16.10;;;;;;;1.02;100.00;100189.08;107278;1299;22010;-80